sensor_id;sensor_type;location;lat;lon;timestamp;P1;durP1;ratioP1;P2;durP2;ratioP2
26574;SDS011;67165;50.256;10.978;2023-04-03T00:00:02;5.10;;;3.00;;
26574;SDS011;67165;50.256;10.978;2023-04-03T00:02:29;6.93;;;3.13;;
26574;SDS011;67165;50.256;10.978;2023-04-03T00:04:55;7.43;;;3.22;;
26574;SDS011;67165;50.256;10.978;2023-04-03T00:07:21;5.85;;;3.00;;
26574;SDS011;67165;50.256;10.978;2023-04-03T00:09:46;8.95;;;3.50;;
26574;SDS011;67165;50.256;10.978;2023-04-03T00:12:12;6.15;;;2.88;;
26574;SDS011;67165;50.256;10.978;2023-04-03T00:14:38;9.13;;;3.42;;
26574;SDS011;67165;50.256;10.978;2023-04-03T00:17:04;7.88;;;3.58;;
26574;SDS011;67165;50.256;10.978;2023-04-03T00:19:30;6.70;;;3.20;;
26574;SDS011;67165;50.256;10.978;2023-04-03T00:21:55;6.68;;;3.55;;
26574;SDS011;67165;50.256;10.978;2023-04-03T00:24:21;6.95;;;3.78;;
26574;SDS011;67165;50.256;10.978;2023-04-03T00:26:47;8.00;;;3.75;;
26574;SDS011;67165;50.256;10.978;2023-04-03T00:29:12;8.38;;;3.60;;
26574;SDS011;67165;50.256;10.978;2023-04-03T00:31:38;11.38;;;3.90;;
26574;SDS011;67165;50.256;10.978;2023-04-03T00:34:04;6.50;;;3.55;;
26574;SDS011;67165;50.256;10.978;2023-04-03T00:36:29;8.43;;;3.65;;
26574;SDS011;67165;50.256;10.978;2023-04-03T00:38:55;8.95;;;3.80;;
26574;SDS011;67165;50.256;10.978;2023-04-03T00:41:21;6.47;;;3.75;;
26574;SDS011;67165;50.256;10.978;2023-04-03T00:43:47;9.18;;;3.97;;
26574;SDS011;67165;50.256;10.978;2023-04-03T00:46:12;8.32;;;3.92;;
26574;SDS011;67165;50.256;10.978;2023-04-03T00:48:39;8.52;;;3.70;;
26574;SDS011;67165;50.256;10.978;2023-04-03T00:51:09;8.27;;;3.72;;
26574;SDS011;67165;50.256;10.978;2023-04-03T00:53:43;8.13;;;3.90;;
26574;SDS011;67165;50.256;10.978;2023-04-03T00:56:13;9.98;;;4.30;;
26574;SDS011;67165;50.256;10.978;2023-04-03T00:58:52;6.70;;;3.80;;
26574;SDS011;67165;50.256;10.978;2023-04-03T01:01:24;8.88;;;3.63;;
26574;SDS011;67165;50.256;10.978;2023-04-03T01:03:52;7.97;;;3.80;;
26574;SDS011;67165;50.256;10.978;2023-04-03T01:06:19;9.05;;;3.85;;
26574;SDS011;67165;50.256;10.978;2023-04-03T01:08:50;10.95;;;4.18;;
26574;SDS011;67165;50.256;10.978;2023-04-03T01:11:16;12.43;;;4.43;;
26574;SDS011;67165;50.256;10.978;2023-04-03T01:13:42;9.88;;;4.13;;
26574;SDS011;67165;50.256;10.978;2023-04-03T01:16:08;9.48;;;3.75;;
26574;SDS011;67165;50.256;10.978;2023-04-03T01:18:36;9.63;;;3.70;;
26574;SDS011;67165;50.256;10.978;2023-04-03T01:26:22;8.75;;;3.45;;
26574;SDS011;67165;50.256;10.978;2023-04-03T01:28:51;10.35;;;3.40;;
26574;SDS011;67165;50.256;10.978;2023-04-03T01:33:44;9.68;;;3.53;;
26574;SDS011;67165;50.256;10.978;2023-04-03T01:36:19;9.90;;;2.90;;
26574;SDS011;67165;50.256;10.978;2023-04-03T01:38:50;8.77;;;3.42;;
26574;SDS011;67165;50.256;10.978;2023-04-03T01:41:16;7.93;;;3.42;;
26574;SDS011;67165;50.256;10.978;2023-04-03T01:43:43;6.78;;;3.00;;
26574;SDS011;67165;50.256;10.978;2023-04-03T01:46:08;9.43;;;3.22;;
26574;SDS011;67165;50.256;10.978;2023-04-03T01:48:34;10.25;;;3.92;;
26574;SDS011;67165;50.256;10.978;2023-04-03T01:51:00;8.15;;;3.53;;
26574;SDS011;67165;50.256;10.978;2023-04-03T01:53:26;8.98;;;3.22;;
26574;SDS011;67165;50.256;10.978;2023-04-03T01:55:52;15.45;;;3.45;;
26574;SDS011;67165;50.256;10.978;2023-04-03T01:58:17;8.68;;;3.38;;
26574;SDS011;67165;50.256;10.978;2023-04-03T02:00:43;8.40;;;3.28;;
26574;SDS011;67165;50.256;10.978;2023-04-03T02:03:09;12.38;;;3.22;;
26574;SDS011;67165;50.256;10.978;2023-04-03T02:05:34;7.35;;;3.20;;
26574;SDS011;67165;50.256;10.978;2023-04-03T02:08:00;8.57;;;3.40;;
26574;SDS011;67165;50.256;10.978;2023-04-03T02:10:26;10.35;;;3.40;;
26574;SDS011;67165;50.256;10.978;2023-04-03T02:12:52;6.28;;;2.95;;
26574;SDS011;67165;50.256;10.978;2023-04-03T02:15:17;10.07;;;3.53;;
26574;SDS011;67165;50.256;10.978;2023-04-03T02:17:43;8.13;;;3.47;;
26574;SDS011;67165;50.256;10.978;2023-04-03T02:20:09;7.50;;;3.10;;
26574;SDS011;67165;50.256;10.978;2023-04-03T02:22:35;9.07;;;3.25;;
26574;SDS011;67165;50.256;10.978;2023-04-03T02:25:01;8.48;;;3.03;;
26574;SDS011;67165;50.256;10.978;2023-04-03T02:27:26;8.80;;;3.35;;
26574;SDS011;67165;50.256;10.978;2023-04-03T02:29:52;6.40;;;2.97;;
26574;SDS011;67165;50.256;10.978;2023-04-03T02:32:18;10.00;;;3.20;;
26574;SDS011;67165;50.256;10.978;2023-04-03T02:34:44;8.00;;;2.95;;
26574;SDS011;67165;50.256;10.978;2023-04-03T02:37:09;6.50;;;3.13;;
26574;SDS011;67165;50.256;10.978;2023-04-03T02:39:35;12.75;;;3.92;;
26574;SDS011;67165;50.256;10.978;2023-04-03T02:42:01;9.75;;;3.30;;
26574;SDS011;67165;50.256;10.978;2023-04-03T02:44:27;8.82;;;3.35;;
26574;SDS011;67165;50.256;10.978;2023-04-03T02:46:52;12.07;;;3.33;;
26574;SDS011;67165;50.256;10.978;2023-04-03T02:49:18;12.05;;;3.42;;
26574;SDS011;67165;50.256;10.978;2023-04-03T02:51:44;7.00;;;3.47;;
26574;SDS011;67165;50.256;10.978;2023-04-03T02:54:10;9.65;;;3.28;;
26574;SDS011;67165;50.256;10.978;2023-04-03T02:56:36;5.85;;;3.05;;
26574;SDS011;67165;50.256;10.978;2023-04-03T02:59:02;7.93;;;3.42;;
26574;SDS011;67165;50.256;10.978;2023-04-03T03:01:27;13.82;;;3.80;;
26574;SDS011;67165;50.256;10.978;2023-04-03T03:03:56;11.82;;;3.42;;
26574;SDS011;67165;50.256;10.978;2023-04-03T03:06:22;11.77;;;3.53;;
26574;SDS011;67165;50.256;10.978;2023-04-03T03:08:48;7.63;;;2.97;;
26574;SDS011;67165;50.256;10.978;2023-04-03T03:11:14;15.18;;;3.72;;
26574;SDS011;67165;50.256;10.978;2023-04-03T03:13:39;10.10;;;4.03;;
26574;SDS011;67165;50.256;10.978;2023-04-03T03:16:05;6.45;;;3.13;;
26574;SDS011;67165;50.256;10.978;2023-04-03T03:18:32;8.90;;;3.30;;
26574;SDS011;67165;50.256;10.978;2023-04-03T03:20:59;13.75;;;3.58;;
26574;SDS011;67165;50.256;10.978;2023-04-03T03:23:26;12.43;;;3.35;;
26574;SDS011;67165;50.256;10.978;2023-04-03T03:25:57;8.85;;;3.30;;
26574;SDS011;67165;50.256;10.978;2023-04-03T03:28:28;7.00;;;3.22;;
26574;SDS011;67165;50.256;10.978;2023-04-03T03:30:53;13.32;;;3.33;;
26574;SDS011;67165;50.256;10.978;2023-04-03T03:33:19;7.28;;;3.15;;
26574;SDS011;67165;50.256;10.978;2023-04-03T03:35:45;8.77;;;3.40;;
26574;SDS011;67165;50.256;10.978;2023-04-03T03:38:10;8.52;;;3.58;;
26574;SDS011;67165;50.256;10.978;2023-04-03T03:40:37;6.90;;;3.13;;
26574;SDS011;67165;50.256;10.978;2023-04-03T03:43:02;7.13;;;3.40;;
26574;SDS011;67165;50.256;10.978;2023-04-03T03:45:28;11.40;;;3.63;;
26574;SDS011;67165;50.256;10.978;2023-04-03T03:47:54;9.07;;;3.28;;
26574;SDS011;67165;50.256;10.978;2023-04-03T03:50:19;8.25;;;3.55;;
26574;SDS011;67165;50.256;10.978;2023-04-03T03:52:45;7.57;;;3.60;;
26574;SDS011;67165;50.256;10.978;2023-04-03T03:55:11;9.90;;;3.53;;
26574;SDS011;67165;50.256;10.978;2023-04-03T03:57:37;7.80;;;3.47;;
26574;SDS011;67165;50.256;10.978;2023-04-03T04:00:03;12.23;;;3.83;;
26574;SDS011;67165;50.256;10.978;2023-04-03T04:02:29;5.72;;;3.28;;
26574;SDS011;67165;50.256;10.978;2023-04-03T04:04:55;7.57;;;3.67;;
26574;SDS011;67165;50.256;10.978;2023-04-03T04:07:21;10.20;;;3.88;;
26574;SDS011;67165;50.256;10.978;2023-04-03T04:09:46;8.05;;;3.90;;
26574;SDS011;67165;50.256;10.978;2023-04-03T04:12:12;11.02;;;4.10;;
26574;SDS011;67165;50.256;10.978;2023-04-03T04:14:37;10.35;;;3.85;;
26574;SDS011;67165;50.256;10.978;2023-04-03T04:17:03;7.00;;;3.72;;
26574;SDS011;67165;50.256;10.978;2023-04-03T04:19:29;10.18;;;4.13;;
26574;SDS011;67165;50.256;10.978;2023-04-03T04:21:54;6.53;;;3.58;;
26574;SDS011;67165;50.256;10.978;2023-04-03T04:24:20;13.05;;;3.75;;
26574;SDS011;67165;50.256;10.978;2023-04-03T04:26:47;11.25;;;3.60;;
26574;SDS011;67165;50.256;10.978;2023-04-03T04:29:13;11.65;;;4.05;;
26574;SDS011;67165;50.256;10.978;2023-04-03T04:31:39;6.68;;;3.30;;
26574;SDS011;67165;50.256;10.978;2023-04-03T04:34:05;11.25;;;4.13;;
26574;SDS011;67165;50.256;10.978;2023-04-03T04:36:30;11.63;;;4.15;;
26574;SDS011;67165;50.256;10.978;2023-04-03T04:38:56;10.15;;;3.97;;
26574;SDS011;67165;50.256;10.978;2023-04-03T04:41:23;9.30;;;4.07;;
26574;SDS011;67165;50.256;10.978;2023-04-03T04:43:50;13.30;;;4.30;;
26574;SDS011;67165;50.256;10.978;2023-04-03T04:46:16;8.27;;;4.00;;
26574;SDS011;67165;50.256;10.978;2023-04-03T04:48:42;5.47;;;3.53;;
26574;SDS011;67165;50.256;10.978;2023-04-03T04:51:07;9.63;;;3.92;;
26574;SDS011;67165;50.256;10.978;2023-04-03T04:53:33;11.57;;;3.97;;
26574;SDS011;67165;50.256;10.978;2023-04-03T04:55:59;9.27;;;4.03;;
26574;SDS011;67165;50.256;10.978;2023-04-03T04:58:25;7.47;;;4.03;;
26574;SDS011;67165;50.256;10.978;2023-04-03T05:00:58;6.95;;;3.72;;
26574;SDS011;67165;50.256;10.978;2023-04-03T05:03:24;11.77;;;4.05;;
26574;SDS011;67165;50.256;10.978;2023-04-03T05:05:50;10.15;;;4.20;;
26574;SDS011;67165;50.256;10.978;2023-04-03T05:08:16;9.00;;;4.05;;
26574;SDS011;67165;50.256;10.978;2023-04-03T05:10:41;9.15;;;4.20;;
26574;SDS011;67165;50.256;10.978;2023-04-03T05:13:07;13.43;;;4.40;;
26574;SDS011;67165;50.256;10.978;2023-04-03T05:15:33;9.27;;;3.92;;
26574;SDS011;67165;50.256;10.978;2023-04-03T05:17:59;10.98;;;4.30;;
26574;SDS011;67165;50.256;10.978;2023-04-03T05:20:24;14.45;;;4.25;;
26574;SDS011;67165;50.256;10.978;2023-04-03T05:22:50;9.27;;;3.97;;
26574;SDS011;67165;50.256;10.978;2023-04-03T05:25:16;9.10;;;4.30;;
26574;SDS011;67165;50.256;10.978;2023-04-03T05:27:41;11.95;;;3.75;;
26574;SDS011;67165;50.256;10.978;2023-04-03T05:30:07;14.70;;;3.95;;
26574;SDS011;67165;50.256;10.978;2023-04-03T05:32:33;11.48;;;4.15;;
26574;SDS011;67165;50.256;10.978;2023-04-03T05:34:59;10.43;;;4.40;;
26574;SDS011;67165;50.256;10.978;2023-04-03T05:37:25;11.88;;;4.20;;
26574;SDS011;67165;50.256;10.978;2023-04-03T05:39:51;9.63;;;4.20;;
26574;SDS011;67165;50.256;10.978;2023-04-03T05:42:16;13.70;;;4.60;;
26574;SDS011;67165;50.256;10.978;2023-04-03T05:44:42;13.25;;;4.13;;
26574;SDS011;67165;50.256;10.978;2023-04-03T05:47:08;12.32;;;3.97;;
26574;SDS011;67165;50.256;10.978;2023-04-03T05:49:34;6.70;;;4.05;;
26574;SDS011;67165;50.256;10.978;2023-04-03T05:52:00;16.05;;;4.47;;
26574;SDS011;67165;50.256;10.978;2023-04-03T05:54:27;11.82;;;4.18;;
26574;SDS011;67165;50.256;10.978;2023-04-03T05:56:54;13.93;;;3.85;;
26574;SDS011;67165;50.256;10.978;2023-04-03T05:59:20;12.05;;;4.55;;
26574;SDS011;67165;50.256;10.978;2023-04-03T06:01:46;9.35;;;4.03;;
26574;SDS011;67165;50.256;10.978;2023-04-03T06:04:13;12.80;;;4.43;;
26574;SDS011;67165;50.256;10.978;2023-04-03T06:09:16;7.80;;;4.45;;
26574;SDS011;67165;50.256;10.978;2023-04-03T06:11:44;12.15;;;4.78;;
26574;SDS011;67165;50.256;10.978;2023-04-03T06:14:10;12.52;;;4.97;;
26574;SDS011;67165;50.256;10.978;2023-04-03T06:16:36;10.15;;;4.40;;
26574;SDS011;67165;50.256;10.978;2023-04-03T06:19:03;12.18;;;4.40;;
26574;SDS011;67165;50.256;10.978;2023-04-03T06:21:29;8.05;;;4.43;;
26574;SDS011;67165;50.256;10.978;2023-04-03T06:23:55;9.50;;;4.20;;
26574;SDS011;67165;50.256;10.978;2023-04-03T06:26:20;10.23;;;4.90;;
26574;SDS011;67165;50.256;10.978;2023-04-03T06:28:47;10.02;;;5.07;;
26574;SDS011;67165;50.256;10.978;2023-04-03T06:31:12;12.93;;;4.68;;
26574;SDS011;67165;50.256;10.978;2023-04-03T06:33:38;10.00;;;4.75;;
26574;SDS011;67165;50.256;10.978;2023-04-03T06:36:04;10.02;;;4.93;;
26574;SDS011;67165;50.256;10.978;2023-04-03T06:38:32;10.88;;;4.78;;
26574;SDS011;67165;50.256;10.978;2023-04-03T06:40:58;11.52;;;4.82;;
26574;SDS011;67165;50.256;10.978;2023-04-03T06:43:25;12.63;;;5.00;;
26574;SDS011;67165;50.256;10.978;2023-04-03T06:45:51;8.38;;;4.65;;
26574;SDS011;67165;50.256;10.978;2023-04-03T06:48:16;9.38;;;4.80;;
26574;SDS011;67165;50.256;10.978;2023-04-03T06:50:42;9.50;;;4.75;;
26574;SDS011;67165;50.256;10.978;2023-04-03T06:53:08;11.23;;;4.32;;
26574;SDS011;67165;50.256;10.978;2023-04-03T06:55:34;10.77;;;4.22;;
26574;SDS011;67165;50.256;10.978;2023-04-03T06:58:00;11.48;;;4.53;;
26574;SDS011;67165;50.256;10.978;2023-04-03T07:00:26;10.30;;;4.20;;
26574;SDS011;67165;50.256;10.978;2023-04-03T07:02:52;8.43;;;4.20;;
26574;SDS011;67165;50.256;10.978;2023-04-03T07:05:18;8.85;;;4.43;;
26574;SDS011;67165;50.256;10.978;2023-04-03T07:07:44;14.43;;;4.80;;
26574;SDS011;67165;50.256;10.978;2023-04-03T07:10:10;12.85;;;4.47;;
26574;SDS011;67165;50.256;10.978;2023-04-03T07:12:36;9.13;;;4.28;;
26574;SDS011;67165;50.256;10.978;2023-04-03T07:15:03;11.55;;;4.25;;
26574;SDS011;67165;50.256;10.978;2023-04-03T07:17:30;10.63;;;4.20;;
26574;SDS011;67165;50.256;10.978;2023-04-03T07:19:56;10.18;;;4.20;;
26574;SDS011;67165;50.256;10.978;2023-04-03T07:22:22;7.90;;;4.10;;
26574;SDS011;67165;50.256;10.978;2023-04-03T07:24:48;6.97;;;3.72;;
26574;SDS011;67165;50.256;10.978;2023-04-03T07:27:13;11.10;;;4.13;;
26574;SDS011;67165;50.256;10.978;2023-04-03T07:29:39;11.80;;;4.28;;
26574;SDS011;67165;50.256;10.978;2023-04-03T07:32:05;8.00;;;3.90;;
26574;SDS011;67165;50.256;10.978;2023-04-03T07:34:31;11.43;;;4.47;;
26574;SDS011;67165;50.256;10.978;2023-04-03T07:36:57;11.63;;;3.75;;
26574;SDS011;67165;50.256;10.978;2023-04-03T07:39:24;7.43;;;4.03;;
26574;SDS011;67165;50.256;10.978;2023-04-03T07:41:50;7.88;;;3.72;;
26574;SDS011;67165;50.256;10.978;2023-04-03T07:44:16;12.73;;;4.10;;
26574;SDS011;67165;50.256;10.978;2023-04-03T07:46:42;10.30;;;3.75;;
26574;SDS011;67165;50.256;10.978;2023-04-03T07:49:08;11.82;;;4.30;;
26574;SDS011;67165;50.256;10.978;2023-04-03T07:51:33;11.40;;;4.63;;
26574;SDS011;67165;50.256;10.978;2023-04-03T07:54:00;10.15;;;4.70;;
26574;SDS011;67165;50.256;10.978;2023-04-03T07:56:25;8.70;;;3.78;;
26574;SDS011;67165;50.256;10.978;2023-04-03T07:58:51;8.95;;;3.80;;
26574;SDS011;67165;50.256;10.978;2023-04-03T08:01:17;11.10;;;3.90;;
26574;SDS011;67165;50.256;10.978;2023-04-03T08:03:42;8.88;;;3.85;;
26574;SDS011;67165;50.256;10.978;2023-04-03T08:06:08;8.60;;;4.00;;
26574;SDS011;67165;50.256;10.978;2023-04-03T08:08:35;9.50;;;4.05;;
26574;SDS011;67165;50.256;10.978;2023-04-03T08:11:01;9.68;;;4.22;;
26574;SDS011;67165;50.256;10.978;2023-04-03T08:13:27;8.40;;;3.75;;
26574;SDS011;67165;50.256;10.978;2023-04-03T08:15:54;8.25;;;3.97;;
26574;SDS011;67165;50.256;10.978;2023-04-03T08:18:22;8.98;;;3.35;;
26574;SDS011;67165;50.256;10.978;2023-04-03T08:20:49;10.00;;;3.15;;
26574;SDS011;67165;50.256;10.978;2023-04-03T08:23:16;8.70;;;3.03;;
26574;SDS011;67165;50.256;10.978;2023-04-03T08:25:42;5.28;;;2.85;;
26574;SDS011;67165;50.256;10.978;2023-04-03T08:28:09;5.85;;;2.70;;
26574;SDS011;67165;50.256;10.978;2023-04-03T08:30:38;13.27;;;2.78;;
26574;SDS011;67165;50.256;10.978;2023-04-03T08:33:04;5.60;;;2.38;;
26574;SDS011;67165;50.256;10.978;2023-04-03T08:35:31;7.28;;;2.78;;
26574;SDS011;67165;50.256;10.978;2023-04-03T08:37:56;10.07;;;2.80;;
26574;SDS011;67165;50.256;10.978;2023-04-03T08:40:22;3.60;;;2.15;;
26574;SDS011;67165;50.256;10.978;2023-04-03T08:45:15;14.05;;;2.88;;
26574;SDS011;67165;50.256;10.978;2023-04-03T08:47:59;7.95;;;2.15;;
26574;SDS011;67165;50.256;10.978;2023-04-03T08:50:37;5.40;;;2.05;;
26574;SDS011;67165;50.256;10.978;2023-04-03T08:53:11;4.75;;;2.05;;
26574;SDS011;67165;50.256;10.978;2023-04-03T08:55:43;7.68;;;2.30;;
26574;SDS011;67165;50.256;10.978;2023-04-03T08:58:19;6.32;;;1.83;;
26574;SDS011;67165;50.256;10.978;2023-04-03T09:03:38;3.97;;;1.77;;
26574;SDS011;67165;50.256;10.978;2023-04-03T09:06:19;5.88;;;1.88;;
26574;SDS011;67165;50.256;10.978;2023-04-03T09:14:34;5.88;;;2.10;;
26574;SDS011;67165;50.256;10.978;2023-04-03T09:20:07;4.45;;;1.88;;
26574;SDS011;67165;50.256;10.978;2023-04-03T09:22:41;7.03;;;2.13;;
26574;SDS011;67165;50.256;10.978;2023-04-03T09:27:43;4.30;;;1.92;;
26574;SDS011;67165;50.256;10.978;2023-04-03T09:30:13;7.43;;;2.28;;
26574;SDS011;67165;50.256;10.978;2023-04-03T09:32:45;5.07;;;1.98;;
26574;SDS011;67165;50.256;10.978;2023-04-03T09:38:14;8.48;;;2.40;;
26574;SDS011;67165;50.256;10.978;2023-04-03T09:40:43;4.78;;;2.08;;
26574;SDS011;67165;50.256;10.978;2023-04-03T09:43:19;7.22;;;2.15;;
26574;SDS011;67165;50.256;10.978;2023-04-03T09:45:46;4.88;;;2.22;;
26574;SDS011;67165;50.256;10.978;2023-04-03T09:50:38;4.45;;;2.28;;
26574;SDS011;67165;50.256;10.978;2023-04-03T09:53:25;3.85;;;2.00;;
26574;SDS011;67165;50.256;10.978;2023-04-03T09:55:51;8.27;;;2.50;;
26574;SDS011;67165;50.256;10.978;2023-04-03T09:58:24;4.82;;;1.95;;
26574;SDS011;67165;50.256;10.978;2023-04-03T10:00:59;8.18;;;1.75;;
26574;SDS011;67165;50.256;10.978;2023-04-03T10:03:33;4.95;;;1.83;;
26574;SDS011;67165;50.256;10.978;2023-04-03T10:06:02;5.65;;;2.10;;
26574;SDS011;67165;50.256;10.978;2023-04-03T10:08:30;4.65;;;2.00;;
26574;SDS011;67165;50.256;10.978;2023-04-03T10:13:32;6.45;;;1.90;;
26574;SDS011;67165;50.256;10.978;2023-04-03T10:18:40;4.60;;;1.77;;
26574;SDS011;67165;50.256;10.978;2023-04-03T10:21:14;4.82;;;1.80;;
26574;SDS011;67165;50.256;10.978;2023-04-03T10:26:45;5.70;;;1.70;;
26574;SDS011;67165;50.256;10.978;2023-04-03T10:34:24;5.55;;;2.00;;
26574;SDS011;67165;50.256;10.978;2023-04-03T10:37:05;2.17;;;1.38;;
26574;SDS011;67165;50.256;10.978;2023-04-03T10:40:02;5.32;;;1.50;;
26574;SDS011;67165;50.256;10.978;2023-04-03T10:42:46;3.42;;;1.65;;
26574;SDS011;67165;50.256;10.978;2023-04-03T10:58:40;4.13;;;1.48;;
26574;SDS011;67165;50.256;10.978;2023-04-03T11:01:10;5.43;;;1.60;;
26574;SDS011;67165;50.256;10.978;2023-04-03T11:03:40;4.82;;;1.60;;
26574;SDS011;67165;50.256;10.978;2023-04-03T11:06:10;6.45;;;1.60;;
26574;SDS011;67165;50.256;10.978;2023-04-03T11:08:46;4.22;;;1.60;;
26574;SDS011;67165;50.256;10.978;2023-04-03T11:11:29;3.28;;;1.55;;
26574;SDS011;67165;50.256;10.978;2023-04-03T11:22:22;7.45;;;1.70;;
26574;SDS011;67165;50.256;10.978;2023-04-03T11:27:32;3.85;;;1.40;;
26574;SDS011;67165;50.256;10.978;2023-04-03T11:30:18;6.60;;;1.70;;
26574;SDS011;67165;50.256;10.978;2023-04-03T11:32:57;3.92;;;1.33;;
26574;SDS011;67165;50.256;10.978;2023-04-03T11:35:48;4.85;;;1.40;;
26574;SDS011;67165;50.256;10.978;2023-04-03T11:38:38;6.85;;;1.70;;
26574;SDS011;67165;50.256;10.978;2023-04-03T11:41:06;3.63;;;1.20;;
26574;SDS011;67165;50.256;10.978;2023-04-03T11:43:36;5.20;;;1.55;;
26574;SDS011;67165;50.256;10.978;2023-04-03T11:46:21;2.85;;;1.30;;
26574;SDS011;67165;50.256;10.978;2023-04-03T11:48:48;4.38;;;1.40;;
26574;SDS011;67165;50.256;10.978;2023-04-03T11:53:45;5.35;;;1.65;;
26574;SDS011;67165;50.256;10.978;2023-04-03T12:04:13;7.28;;;1.67;;
26574;SDS011;67165;50.256;10.978;2023-04-03T12:09:26;4.03;;;1.70;;
26574;SDS011;67165;50.256;10.978;2023-04-03T12:11:52;3.47;;;1.25;;
26574;SDS011;67165;50.256;10.978;2023-04-03T12:14:21;4.68;;;1.38;;
26574;SDS011;67165;50.256;10.978;2023-04-03T12:16:50;5.38;;;1.45;;
26574;SDS011;67165;50.256;10.978;2023-04-03T12:24:29;4.40;;;1.60;;
26574;SDS011;67165;50.256;10.978;2023-04-03T12:35:02;3.92;;;1.33;;
26574;SDS011;67165;50.256;10.978;2023-04-03T12:48:53;6.03;;;1.40;;
26574;SDS011;67165;50.256;10.978;2023-04-03T12:53:51;4.03;;;1.80;;
26574;SDS011;67165;50.256;10.978;2023-04-03T12:56:28;3.58;;;1.20;;
26574;SDS011;67165;50.256;10.978;2023-04-03T12:59:41;3.55;;;1.50;;
26574;SDS011;67165;50.256;10.978;2023-04-03T13:01:42;3.67;;;1.65;;
26574;SDS011;67165;50.256;10.978;2023-04-03T13:04:10;5.97;;;1.67;;
26574;SDS011;67165;50.256;10.978;2023-04-03T13:06:41;2.60;;;1.25;;
26574;SDS011;67165;50.256;10.978;2023-04-03T13:09:18;3.50;;;1.38;;
26574;SDS011;67165;50.256;10.978;2023-04-03T13:11:51;4.40;;;1.58;;
26574;SDS011;67165;50.256;10.978;2023-04-03T13:16:56;3.50;;;1.60;;
26574;SDS011;67165;50.256;10.978;2023-04-03T13:19:26;4.88;;;1.63;;
26574;SDS011;67165;50.256;10.978;2023-04-03T13:22:03;5.13;;;1.60;;
26574;SDS011;67165;50.256;10.978;2023-04-03T13:24:34;3.05;;;1.45;;
26574;SDS011;67165;50.256;10.978;2023-04-03T13:27:02;3.40;;;1.52;;
26574;SDS011;67165;50.256;10.978;2023-04-03T13:29:29;4.38;;;1.40;;
26574;SDS011;67165;50.256;10.978;2023-04-03T13:31:58;5.22;;;1.50;;
26574;SDS011;67165;50.256;10.978;2023-04-03T13:34:26;4.07;;;1.85;;
26574;SDS011;67165;50.256;10.978;2023-04-03T13:41:53;10.40;;;1.67;;
26574;SDS011;67165;50.256;10.978;2023-04-03T13:49:36;3.38;;;1.60;;
26574;SDS011;67165;50.256;10.978;2023-04-03T13:54:54;4.00;;;1.33;;
26574;SDS011;67165;50.256;10.978;2023-04-03T13:57:22;3.13;;;1.50;;
26574;SDS011;67165;50.256;10.978;2023-04-03T13:59:48;3.88;;;1.48;;
26574;SDS011;67165;50.256;10.978;2023-04-03T14:07:14;3.55;;;1.40;;
26574;SDS011;67165;50.256;10.978;2023-04-03T14:09:42;3.83;;;1.60;;
26574;SDS011;67165;50.256;10.978;2023-04-03T14:12:11;4.60;;;1.48;;
26574;SDS011;67165;50.256;10.978;2023-04-03T14:14:42;3.92;;;1.60;;
26574;SDS011;67165;50.256;10.978;2023-04-03T14:17:19;6.70;;;1.60;;
26574;SDS011;67165;50.256;10.978;2023-04-03T14:19:48;5.20;;;1.70;;
26574;SDS011;67165;50.256;10.978;2023-04-03T14:22:16;4.45;;;1.77;;
26574;SDS011;67165;50.256;10.978;2023-04-03T14:24:47;6.28;;;1.80;;
26574;SDS011;67165;50.256;10.978;2023-04-03T14:29:54;5.82;;;1.58;;
26574;SDS011;67165;50.256;10.978;2023-04-03T14:32:22;6.35;;;1.88;;
26574;SDS011;67165;50.256;10.978;2023-04-03T14:34:49;5.60;;;2.47;;
26574;SDS011;67165;50.256;10.978;2023-04-03T14:37:17;3.45;;;1.75;;
26574;SDS011;67165;50.256;10.978;2023-04-03T14:39:48;4.05;;;2.17;;
26574;SDS011;67165;50.256;10.978;2023-04-03T14:42:25;5.55;;;1.90;;
26574;SDS011;67165;50.256;10.978;2023-04-03T14:44:54;4.95;;;2.30;;
26574;SDS011;67165;50.256;10.978;2023-04-03T14:47:20;4.85;;;1.52;;
26574;SDS011;67165;50.256;10.978;2023-04-03T14:49:49;2.75;;;1.52;;
26574;SDS011;67165;50.256;10.978;2023-04-03T14:52:18;5.63;;;1.85;;
26574;SDS011;67165;50.256;10.978;2023-04-03T14:54:46;4.82;;;2.10;;
26574;SDS011;67165;50.256;10.978;2023-04-03T14:57:13;6.28;;;1.95;;
26574;SDS011;67165;50.256;10.978;2023-04-03T14:59:41;7.32;;;1.90;;
26574;SDS011;67165;50.256;10.978;2023-04-03T15:02:27;5.60;;;1.63;;
26574;SDS011;67165;50.256;10.978;2023-04-03T15:04:55;7.63;;;1.52;;
26574;SDS011;67165;50.256;10.978;2023-04-03T15:07:21;3.22;;;1.60;;
26574;SDS011;67165;50.256;10.978;2023-04-03T15:09:49;4.40;;;1.80;;
26574;SDS011;67165;50.256;10.978;2023-04-03T15:12:15;6.32;;;1.80;;
26574;SDS011;67165;50.256;10.978;2023-04-03T15:14:40;4.63;;;1.75;;
26574;SDS011;67165;50.256;10.978;2023-04-03T15:17:06;4.03;;;1.42;;
26574;SDS011;67165;50.256;10.978;2023-04-03T15:19:40;4.65;;;1.60;;
26574;SDS011;67165;50.256;10.978;2023-04-03T15:22:06;3.80;;;1.60;;
26574;SDS011;67165;50.256;10.978;2023-04-03T15:24:33;3.47;;;1.70;;
26574;SDS011;67165;50.256;10.978;2023-04-03T15:26:59;4.15;;;1.88;;
26574;SDS011;67165;50.256;10.978;2023-04-03T15:29:26;5.60;;;1.55;;
26574;SDS011;67165;50.256;10.978;2023-04-03T15:31:52;6.15;;;1.60;;
26574;SDS011;67165;50.256;10.978;2023-04-03T15:34:18;4.85;;;1.58;;
26574;SDS011;67165;50.256;10.978;2023-04-03T15:36:44;4.47;;;1.50;;
26574;SDS011;67165;50.256;10.978;2023-04-03T15:39:09;5.40;;;1.55;;
26574;SDS011;67165;50.256;10.978;2023-04-03T15:41:35;3.92;;;1.60;;
26574;SDS011;67165;50.256;10.978;2023-04-03T15:44:01;6.50;;;1.70;;
26574;SDS011;67165;50.256;10.978;2023-04-03T15:46:26;11.48;;;2.10;;
26574;SDS011;67165;50.256;10.978;2023-04-03T15:48:52;4.00;;;1.45;;
26574;SDS011;67165;50.256;10.978;2023-04-03T15:51:18;6.93;;;1.80;;
26574;SDS011;67165;50.256;10.978;2023-04-03T15:53:43;3.80;;;1.50;;
26574;SDS011;67165;50.256;10.978;2023-04-03T15:56:09;4.32;;;1.73;;
26574;SDS011;67165;50.256;10.978;2023-04-03T15:58:35;6.53;;;1.65;;
26574;SDS011;67165;50.256;10.978;2023-04-03T16:01:01;9.02;;;1.75;;
26574;SDS011;67165;50.256;10.978;2023-04-03T16:03:26;3.55;;;1.52;;
26574;SDS011;67165;50.256;10.978;2023-04-03T16:05:52;6.55;;;1.88;;
26574;SDS011;67165;50.256;10.978;2023-04-03T16:08:18;8.27;;;2.33;;
26574;SDS011;67165;50.256;10.978;2023-04-03T16:10:44;3.08;;;1.70;;
26574;SDS011;67165;50.256;10.978;2023-04-03T16:13:11;5.22;;;1.60;;
26574;SDS011;67165;50.256;10.978;2023-04-03T16:15:37;2.90;;;1.95;;
26574;SDS011;67165;50.256;10.978;2023-04-03T16:18:03;7.03;;;2.03;;
26574;SDS011;67165;50.256;10.978;2023-04-03T16:20:30;11.75;;;3.80;;
26574;SDS011;67165;50.256;10.978;2023-04-03T16:22:57;11.07;;;3.97;;
26574;SDS011;67165;50.256;10.978;2023-04-03T16:25:25;11.77;;;3.65;;
26574;SDS011;67165;50.256;10.978;2023-04-03T16:27:51;5.63;;;1.75;;
26574;SDS011;67165;50.256;10.978;2023-04-03T16:30:17;5.07;;;2.05;;
26574;SDS011;67165;50.256;10.978;2023-04-03T16:32:43;5.35;;;1.90;;
26574;SDS011;67165;50.256;10.978;2023-04-03T16:35:09;4.68;;;1.65;;
26574;SDS011;67165;50.256;10.978;2023-04-03T16:37:36;7.07;;;2.25;;
26574;SDS011;67165;50.256;10.978;2023-04-03T16:40:04;6.07;;;2.17;;
26574;SDS011;67165;50.256;10.978;2023-04-03T16:42:31;4.50;;;1.60;;
26574;SDS011;67165;50.256;10.978;2023-04-03T16:44:57;6.15;;;1.60;;
26574;SDS011;67165;50.256;10.978;2023-04-03T16:47:25;6.35;;;2.03;;